sensor_id;sensor_type;location;lat;lon;timestamp;pressure;altitude;pressure_sealevel;temperature;humidity
38191;BME280;25191;47.510;19.124;2023-05-22T00:15:32;100245.56;;;23.80;44.42
38191;BME280;25191;47.510;19.124;2023-05-22T00:35:32;100257.94;;;23.70;44.49
38191;BME280;25191;47.510;19.124;2023-05-22T00:55:33;100257.53;;;23.65;44.35
38191;BME280;25191;47.510;19.124;2023-05-22T01:35:35;100246.66;;;23.48;44.61
38191;BME280;25191;47.510;19.124;2023-05-22T02:15:56;100223.00;;;23.27;44.46
38191;BME280;25191;47.510;19.124;2023-05-22T02:35:57;100229.22;;;23.16;44.19
38191;BME280;25191;47.510;19.124;2023-05-22T02:55:57;100217.50;;;23.09;43.73
38191;BME280;25191;47.510;19.124;2023-05-22T03:15:58;100215.69;;;23.00;43.93
38191;BME280;25191;47.510;19.124;2023-05-22T03:35:58;100222.47;;;22.93;43.92
38191;BME280;25191;47.510;19.124;2023-05-22T03:55:59;100222.88;;;22.88;43.98
38191;BME280;25191;47.510;19.124;2023-05-22T04:15:59;100220.47;;;22.85;44.43
38191;BME280;25191;47.510;19.124;2023-05-22T04:36:01;100219.16;;;23.00;44.27
38191;BME280;25191;47.510;19.124;2023-05-22T04:56:01;100215.97;;;23.07;45.33
38191;BME280;25191;47.510;19.124;2023-05-22T05:16:03;100236.72;;;22.70;44.39
38191;BME280;25191;47.510;19.124;2023-05-22T05:36:05;100248.53;;;22.76;44.09
38191;BME280;25191;47.510;19.124;2023-05-22T05:56:07;100260.53;;;22.90;43.68
38191;BME280;25191;47.510;19.124;2023-05-22T06:16:08;100257.63;;;22.93;43.28
38191;BME280;25191;47.510;19.124;2023-05-22T06:36:09;100249.31;;;22.98;43.40
38191;BME280;25191;47.510;19.124;2023-05-22T06:56:12;100262.41;;;23.09;42.98
38191;BME280;25191;47.510;19.124;2023-05-22T07:16:13;100259.00;;;23.18;41.98
38191;BME280;25191;47.510;19.124;2023-05-22T07:36:13;100262.78;;;23.36;43.73
38191;BME280;25191;47.510;19.124;2023-05-22T07:56:14;100247.66;;;23.47;44.02
38191;BME280;25191;47.510;19.124;2023-05-22T08:16:14;100253.06;;;23.56;43.53
38191;BME280;25191;47.510;19.124;2023-05-22T08:36:15;100243.59;;;23.43;41.51
38191;BME280;25191;47.510;19.124;2023-05-22T08:56:17;100238.59;;;23.50;39.95
38191;BME280;25191;47.510;19.124;2023-05-22T09:16:18;100243.75;;;23.61;40.99
38191;BME280;25191;47.510;19.124;2023-05-22T09:36:18;100228.31;;;23.66;39.78
38191;BME280;25191;47.510;19.124;2023-05-22T09:56:20;100222.34;;;23.74;37.48
38191;BME280;25191;47.510;19.124;2023-05-22T10:16:24;100218.16;;;23.81;38.33
38191;BME280;25191;47.510;19.124;2023-05-22T10:57:15;100174.72;;;24.13;41.02
38191;BME280;25191;47.510;19.124;2023-05-22T11:17:26;100155.56;;;24.29;39.75
38191;BME280;25191;47.510;19.124;2023-05-22T11:37:28;100132.22;;;24.53;38.47
38191;BME280;25191;47.510;19.124;2023-05-22T11:57:28;100115.03;;;24.67;38.57
38191;BME280;25191;47.510;19.124;2023-05-22T12:17:29;100103.47;;;24.86;38.96
38191;BME280;25191;47.510;19.124;2023-05-22T12:37:29;100080.41;;;24.96;39.00
38191;BME280;25191;47.510;19.124;2023-05-22T12:57:32;100054.34;;;25.09;39.47
38191;BME280;25191;47.510;19.124;2023-05-22T13:17:33;100028.44;;;25.21;39.35
38191;BME280;25191;47.510;19.124;2023-05-22T13:37:34;100009.81;;;25.31;39.79
38191;BME280;25191;47.510;19.124;2023-05-22T13:57:34;100010.78;;;25.30;39.56
38191;BME280;25191;47.510;19.124;2023-05-22T14:17:37;99991.69;;;25.45;39.67
38191;BME280;25191;47.510;19.124;2023-05-22T14:37:38;99986.13;;;25.56;39.43
38191;BME280;25191;47.510;19.124;2023-05-22T14:57:39;99965.94;;;25.63;39.82
38191;BME280;25191;47.510;19.124;2023-05-22T15:17:39;99961.53;;;25.72;39.96
38191;BME280;25191;47.510;19.124;2023-05-22T15:37:40;99951.00;;;25.97;39.69
38191;BME280;25191;47.510;19.124;2023-05-22T15:57:40;99937.66;;;26.31;39.57
38191;BME280;25191;47.510;19.124;2023-05-22T16:17:40;99941.84;;;26.26;39.60
38191;BME280;25191;47.510;19.124;2023-05-22T16:37:42;99943.78;;;26.15;39.79
38191;BME280;25191;47.510;19.124;2023-05-22T16:57:43;99965.78;;;25.99;38.94
38191;BME280;25191;47.510;19.124;2023-05-22T17:17:44;99970.69;;;25.86;38.89
38191;BME280;25191;47.510;19.124;2023-05-22T17:37:44;99986.72;;;25.76;41.12
38191;BME280;25191;47.510;19.124;2023-05-22T17:57:51;100001.09;;;25.65;43.79
38191;BME280;25191;47.510;19.124;2023-05-22T18:17:51;100003.44;;;25.42;44.56
38191;BME280;25191;47.510;19.124;2023-05-22T18:37:52;100026.78;;;25.20;46.74
38191;BME280;25191;47.510;19.124;2023-05-22T18:57:53;100024.69;;;25.06;46.91
38191;BME280;25191;47.510;19.124;2023-05-22T19:17:53;100051.25;;;25.14;46.13
38191;BME280;25191;47.510;19.124;2023-05-22T19:37:54;100060.88;;;25.15;46.07
38191;BME280;25191;47.510;19.124;2023-05-22T19:57:55;100060.19;;;25.13;46.03
38191;BME280;25191;47.510;19.124;2023-05-22T20:17:55;100057.00;;;25.09;46.10
38191;BME280;25191;47.510;19.124;2023-05-22T20:38:02;100048.53;;;25.06;46.12
38191;BME280;25191;47.510;19.124;2023-05-22T20:58:03;100047.41;;;25.08;47.29
38191;BME280;25191;47.510;19.124;2023-05-22T21:18:04;100047.53;;;25.07;47.55
38191;BME280;25191;47.510;19.124;2023-05-22T21:38:05;100057.09;;;25.00;47.65
38191;BME280;25191;47.510;19.124;2023-05-22T21:58:05;100063.59;;;24.87;47.25
38191;BME280;25191;47.510;19.124;2023-05-22T22:18:06;100054.31;;;24.83;47.17
38191;BME280;25191;47.510;19.124;2023-05-22T22:38:06;100056.41;;;24.80;47.04
38191;BME280;25191;47.510;19.124;2023-05-22T22:58:06;100041.50;;;24.78;47.38
38191;BME280;25191;47.510;19.124;2023-05-22T23:18:09;100032.75;;;24.78;47.76
38191;BME280;25191;47.510;19.124;2023-05-22T23:38:10;100033.19;;;24.73;47.68
38191;BME280;25191;47.510;19.124;2023-05-22T23:58:10;100041.59;;;24.69;47.79
